Appalachia, Virginia
Current Conditions -  °F | °C
As of 6:15 AM on Friday 26 Dec 2014 (Local Time) from KLNP Reporting Station
Clear Clear  
Wind Chill:   Ceiling: Unl
Heat Index:   Visibility: 10mi
Dew Point: -3°   Wind: 3mph
Humidity: 80%   Direction: 210°SSW
Pressure: 30.24"   Gusts: NA
Location:  36.91°N, 82.78°W
Report Text: KLNP 261115Z AUTO 21003KT 10SM CLR 00/M03 A3024 RMK AO2
Loading
Personal Weather Stations






























Interactive Weather Map New forecast layout! Learn more

10-Day Weather Forecast

Advertisements
Track Severe Weather on mobile